sensor_id;sensor_type;location;lat;lon;timestamp;temperature;humidity
10905;DHT22;5505;51.450;9.254;2022-08-21T00:00:10;16.70;99.90
10905;DHT22;5505;51.450;9.254;2022-08-21T00:03:04;16.80;99.90
10905;DHT22;5505;51.450;9.254;2022-08-21T00:05:51;16.80;99.90
10905;DHT22;5505;51.450;9.254;2022-08-21T00:08:38;16.70;99.90
10905;DHT22;5505;51.450;9.254;2022-08-21T00:11:25;16.80;99.90
10905;DHT22;5505;51.450;9.254;2022-08-21T00:14:13;16.80;99.90
10905;DHT22;5505;51.450;9.254;2022-08-21T00:17:02;16.90;99.90
10905;DHT22;5505;51.450;9.254;2022-08-21T00:19:49;16.80;99.90
10905;DHT22;5505;51.450;9.254;2022-08-21T00:22:36;16.80;99.90
10905;DHT22;5505;51.450;9.254;2022-08-21T00:25:24;16.70;99.90
10905;DHT22;5505;51.450;9.254;2022-08-21T00:28:11;16.70;99.90
10905;DHT22;5505;51.450;9.254;2022-08-21T00:30:58;16.70;99.90
10905;DHT22;5505;51.450;9.254;2022-08-21T00:33:46;16.70;99.90
10905;DHT22;5505;51.450;9.254;2022-08-21T00:36:34;16.70;99.90
10905;DHT22;5505;51.450;9.254;2022-08-21T00:39:21;16.70;99.90
10905;DHT22;5505;51.450;9.254;2022-08-21T00:42:08;16.70;99.90
10905;DHT22;5505;51.450;9.254;2022-08-21T00:44:55;16.70;99.90
10905;DHT22;5505;51.450;9.254;2022-08-21T00:47:41;16.60;99.90
10905;DHT22;5505;51.450;9.254;2022-08-21T00:50:35;16.70;99.90
10905;DHT22;5505;51.450;9.254;2022-08-21T00:53:23;16.60;99.90
10905;DHT22;5505;51.450;9.254;2022-08-21T00:56:11;16.50;99.90
10905;DHT22;5505;51.450;9.254;2022-08-21T00:58:59;16.50;99.90
10905;DHT22;5505;51.450;9.254;2022-08-21T01:01:47;16.50;99.90
10905;DHT22;5505;51.450;9.254;2022-08-21T01:04:34;16.40;99.90
10905;DHT22;5505;51.450;9.254;2022-08-21T01:07:23;16.30;99.90
10905;DHT22;5505;51.450;9.254;2022-08-21T01:10:10;16.30;99.90
10905;DHT22;5505;51.450;9.254;2022-08-21T01:12:58;16.30;99.90
10905;DHT22;5505;51.450;9.254;2022-08-21T01:15:47;16.30;99.90
10905;DHT22;5505;51.450;9.254;2022-08-21T01:18:35;16.40;99.90
10905;DHT22;5505;51.450;9.254;2022-08-21T01:21:25;16.40;99.90
10905;DHT22;5505;51.450;9.254;2022-08-21T01:24:13;16.40;99.90
10905;DHT22;5505;51.450;9.254;2022-08-21T01:27:01;16.40;99.90
10905;DHT22;5505;51.450;9.254;2022-08-21T01:29:52;16.40;99.90
10905;DHT22;5505;51.450;9.254;2022-08-21T01:32:41;16.30;99.90
10905;DHT22;5505;51.450;9.254;2022-08-21T01:35:28;16.30;99.90
10905;DHT22;5505;51.450;9.254;2022-08-21T01:38:16;16.30;99.90
10905;DHT22;5505;51.450;9.254;2022-08-21T01:41:03;16.40;99.90
10905;DHT22;5505;51.450;9.254;2022-08-21T01:43:51;16.40;99.90
10905;DHT22;5505;51.450;9.254;2022-08-21T01:46:37;16.30;99.90
10905;DHT22;5505;51.450;9.254;2022-08-21T01:49:24;16.30;99.90
10905;DHT22;5505;51.450;9.254;2022-08-21T01:52:11;16.20;99.90
10905;DHT22;5505;51.450;9.254;2022-08-21T01:54:59;16.10;99.90
10905;DHT22;5505;51.450;9.254;2022-08-21T01:57:46;16.00;99.90
10905;DHT22;5505;51.450;9.254;2022-08-21T02:00:33;15.90;99.90
10905;DHT22;5505;51.450;9.254;2022-08-21T02:03:20;15.90;99.90
10905;DHT22;5505;51.450;9.254;2022-08-21T02:06:11;15.80;99.90
10905;DHT22;5505;51.450;9.254;2022-08-21T02:08:58;15.60;99.90
10905;DHT22;5505;51.450;9.254;2022-08-21T02:11:46;15.60;99.90
10905;DHT22;5505;51.450;9.254;2022-08-21T02:14:33;15.50;99.90
10905;DHT22;5505;51.450;9.254;2022-08-21T02:17:20;15.50;99.90
10905;DHT22;5505;51.450;9.254;2022-08-21T02:20:10;15.50;99.90
10905;DHT22;5505;51.450;9.254;2022-08-21T02:22:57;15.50;99.90
10905;DHT22;5505;51.450;9.254;2022-08-21T02:25:45;15.50;99.90
10905;DHT22;5505;51.450;9.254;2022-08-21T02:28:34;15.50;99.90
10905;DHT22;5505;51.450;9.254;2022-08-21T02:31:21;15.50;99.90
10905;DHT22;5505;51.450;9.254;2022-08-21T02:34:08;15.50;99.90
10905;DHT22;5505;51.450;9.254;2022-08-21T02:36:55;15.40;99.90
10905;DHT22;5505;51.450;9.254;2022-08-21T02:39:42;15.30;99.90
10905;DHT22;5505;51.450;9.254;2022-08-21T02:42:29;15.20;99.90
10905;DHT22;5505;51.450;9.254;2022-08-21T02:45:18;15.10;99.90
10905;DHT22;5505;51.450;9.254;2022-08-21T02:48:07;15.10;99.90
10905;DHT22;5505;51.450;9.254;2022-08-21T02:50:57;14.90;99.90
10905;DHT22;5505;51.450;9.254;2022-08-21T02:53:44;14.90;99.90
10905;DHT22;5505;51.450;9.254;2022-08-21T02:56:31;14.90;99.90
10905;DHT22;5505;51.450;9.254;2022-08-21T02:59:18;14.90;99.90
10905;DHT22;5505;51.450;9.254;2022-08-21T03:02:06;14.90;99.90
10905;DHT22;5505;51.450;9.254;2022-08-21T03:04:53;14.90;99.90
10905;DHT22;5505;51.450;9.254;2022-08-21T03:07:40;14.90;99.90
10905;DHT22;5505;51.450;9.254;2022-08-21T03:10:28;14.90;99.90
10905;DHT22;5505;51.450;9.254;2022-08-21T03:13:17;14.90;99.90
10905;DHT22;5505;51.450;9.254;2022-08-21T03:16:06;14.80;99.90
10905;DHT22;5505;51.450;9.254;2022-08-21T03:18:54;14.80;99.90
10905;DHT22;5505;51.450;9.254;2022-08-21T03:21:41;14.70;99.90
10905;DHT22;5505;51.450;9.254;2022-08-21T03:24:28;14.70;99.90
10905;DHT22;5505;51.450;9.254;2022-08-21T03:27:14;14.80;99.90
10905;DHT22;5505;51.450;9.254;2022-08-21T03:30:03;14.80;99.90
10905;DHT22;5505;51.450;9.254;2022-08-21T03:32:50;14.70;99.90
10905;DHT22;5505;51.450;9.254;2022-08-21T03:35:39;14.70;99.90
10905;DHT22;5505;51.450;9.254;2022-08-21T03:38:28;14.70;99.90
10905;DHT22;5505;51.450;9.254;2022-08-21T03:41:15;14.70;99.90
10905;DHT22;5505;51.450;9.254;2022-08-21T03:44:03;14.60;99.90
10905;DHT22;5505;51.450;9.254;2022-08-21T03:46:49;14.60;99.90
10905;DHT22;5505;51.450;9.254;2022-08-21T03:49:36;14.50;99.90
10905;DHT22;5505;51.450;9.254;2022-08-21T03:52:24;14.50;99.90
10905;DHT22;5505;51.450;9.254;2022-08-21T03:55:11;14.40;99.90
10905;DHT22;5505;51.450;9.254;2022-08-21T03:57:58;14.40;99.90
10905;DHT22;5505;51.450;9.254;2022-08-21T04:00:46;14.40;99.90
10905;DHT22;5505;51.450;9.254;2022-08-21T04:03:35;14.30;99.90
10905;DHT22;5505;51.450;9.254;2022-08-21T04:06:22;14.30;99.90
10905;DHT22;5505;51.450;9.254;2022-08-21T04:09:10;14.20;99.90
10905;DHT22;5505;51.450;9.254;2022-08-21T04:11:58;14.20;99.90
10905;DHT22;5505;51.450;9.254;2022-08-21T04:14:45;14.10;99.90
10905;DHT22;5505;51.450;9.254;2022-08-21T04:17:32;14.10;99.90
10905;DHT22;5505;51.450;9.254;2022-08-21T04:20:20;14.10;99.90
10905;DHT22;5505;51.450;9.254;2022-08-21T04:23:08;14.20;99.90
10905;DHT22;5505;51.450;9.254;2022-08-21T04:25:56;14.20;99.90
10905;DHT22;5505;51.450;9.254;2022-08-21T04:28:43;14.30;99.90
10905;DHT22;5505;51.450;9.254;2022-08-21T04:31:30;14.30;99.90
10905;DHT22;5505;51.450;9.254;2022-08-21T04:34:17;14.30;99.90
10905;DHT22;5505;51.450;9.254;2022-08-21T04:37:04;14.30;99.90
10905;DHT22;5505;51.450;9.254;2022-08-21T04:39:51;14.30;99.90
10905;DHT22;5505;51.450;9.254;2022-08-21T04:42:43;14.20;99.90
10905;DHT22;5505;51.450;9.254;2022-08-21T04:45:33;14.20;99.90
10905;DHT22;5505;51.450;9.254;2022-08-21T04:48:21;14.20;99.90
10905;DHT22;5505;51.450;9.254;2022-08-21T04:51:13;14.20;99.90
10905;DHT22;5505;51.450;9.254;2022-08-21T04:54:07;14.20;99.90
10905;DHT22;5505;51.450;9.254;2022-08-21T04:56:59;14.90;99.90
10905;DHT22;5505;51.450;9.254;2022-08-21T04:59:51;14.30;99.90
10905;DHT22;5505;51.450;9.254;2022-08-21T05:02:38;14.30;99.90
10905;DHT22;5505;51.450;9.254;2022-08-21T05:05:27;14.30;99.90
10905;DHT22;5505;51.450;9.254;2022-08-21T05:08:16;14.40;99.90
10905;DHT22;5505;51.450;9.254;2022-08-21T05:11:05;14.40;99.90
10905;DHT22;5505;51.450;9.254;2022-08-21T05:13:52;14.40;99.90
10905;DHT22;5505;51.450;9.254;2022-08-21T05:16:40;14.40;99.90
10905;DHT22;5505;51.450;9.254;2022-08-21T05:19:29;14.40;99.90
10905;DHT22;5505;51.450;9.254;2022-08-21T05:22:19;14.40;99.90
10905;DHT22;5505;51.450;9.254;2022-08-21T05:25:07;14.50;99.90
10905;DHT22;5505;51.450;9.254;2022-08-21T05:27:54;14.70;99.90
10905;DHT22;5505;51.450;9.254;2022-08-21T05:30:42;14.70;99.90
10905;DHT22;5505;51.450;9.254;2022-08-21T05:33:30;14.80;99.90
10905;DHT22;5505;51.450;9.254;2022-08-21T05:36:17;14.90;99.90
10905;DHT22;5505;51.450;9.254;2022-08-21T05:39:04;14.90;99.90
10905;DHT22;5505;51.450;9.254;2022-08-21T05:41:50;14.90;99.90
10905;DHT22;5505;51.450;9.254;2022-08-21T05:44:37;15.00;99.90
10905;DHT22;5505;51.450;9.254;2022-08-21T05:47:24;15.00;99.90
10905;DHT22;5505;51.450;9.254;2022-08-21T05:50:12;15.10;99.90
10905;DHT22;5505;51.450;9.254;2022-08-21T05:52:59;15.10;99.90
10905;DHT22;5505;51.450;9.254;2022-08-21T05:55:47;15.20;99.90
10905;DHT22;5505;51.450;9.254;2022-08-21T05:58:34;15.30;99.90
10905;DHT22;5505;51.450;9.254;2022-08-21T06:01:21;15.30;99.90
10905;DHT22;5505;51.450;9.254;2022-08-21T06:04:08;15.40;99.90
10905;DHT22;5505;51.450;9.254;2022-08-21T06:06:57;15.50;99.90
10905;DHT22;5505;51.450;9.254;2022-08-21T06:09:44;15.60;99.90
10905;DHT22;5505;51.450;9.254;2022-08-21T06:12:31;15.70;99.90
10905;DHT22;5505;51.450;9.254;2022-08-21T06:15:18;15.80;99.90
10905;DHT22;5505;51.450;9.254;2022-08-21T06:18:05;15.90;99.90
10905;DHT22;5505;51.450;9.254;2022-08-21T06:20:52;16.00;99.90
10905;DHT22;5505;51.450;9.254;2022-08-21T06:23:40;16.10;99.90
10905;DHT22;5505;51.450;9.254;2022-08-21T06:26:27;16.20;99.90
10905;DHT22;5505;51.450;9.254;2022-08-21T06:29:14;16.30;99.90
10905;DHT22;5505;51.450;9.254;2022-08-21T06:32:03;16.30;99.90
10905;DHT22;5505;51.450;9.254;2022-08-21T06:34:52;16.40;99.90
10905;DHT22;5505;51.450;9.254;2022-08-21T06:37:38;16.50;99.90
10905;DHT22;5505;51.450;9.254;2022-08-21T06:40:27;16.50;99.90
10905;DHT22;5505;51.450;9.254;2022-08-21T06:43:16;16.80;99.90
10905;DHT22;5505;51.450;9.254;2022-08-21T06:46:03;16.90;99.90
10905;DHT22;5505;51.450;9.254;2022-08-21T06:48:50;17.20;99.90
10905;DHT22;5505;51.450;9.254;2022-08-21T06:51:37;17.20;99.90
10905;DHT22;5505;51.450;9.254;2022-08-21T06:54:24;17.20;99.90
10905;DHT22;5505;51.450;9.254;2022-08-21T06:57:12;17.20;99.90
10905;DHT22;5505;51.450;9.254;2022-08-21T06:59:59;17.30;99.90
10905;DHT22;5505;51.450;9.254;2022-08-21T07:02:45;17.40;99.90
10905;DHT22;5505;51.450;9.254;2022-08-21T07:05:32;17.50;99.90
10905;DHT22;5505;51.450;9.254;2022-08-21T07:08:20;17.60;99.90
10905;DHT22;5505;51.450;9.254;2022-08-21T07:11:10;17.80;99.90
10905;DHT22;5505;51.450;9.254;2022-08-21T07:13:59;17.90;99.90
10905;DHT22;5505;51.450;9.254;2022-08-21T07:16:46;18.20;99.90
10905;DHT22;5505;51.450;9.254;2022-08-21T07:19:33;18.40;99.90
10905;DHT22;5505;51.450;9.254;2022-08-21T07:22:20;18.40;99.90
10905;DHT22;5505;51.450;9.254;2022-08-21T07:25:07;18.50;99.90
10905;DHT22;5505;51.450;9.254;2022-08-21T07:27:55;18.70;99.90
10905;DHT22;5505;51.450;9.254;2022-08-21T07:30:43;19.00;99.90
10905;DHT22;5505;51.450;9.254;2022-08-21T07:33:31;19.10;99.90
10905;DHT22;5505;51.450;9.254;2022-08-21T07:36:19;19.20;99.90
10905;DHT22;5505;51.450;9.254;2022-08-21T07:39:05;19.40;99.90
10905;DHT22;5505;51.450;9.254;2022-08-21T07:41:53;19.60;99.90
10905;DHT22;5505;51.450;9.254;2022-08-21T07:44:40;19.80;99.90
10905;DHT22;5505;51.450;9.254;2022-08-21T07:47:28;20.00;99.90
10905;DHT22;5505;51.450;9.254;2022-08-21T07:50:15;20.20;99.90
10905;DHT22;5505;51.450;9.254;2022-08-21T07:53:02;20.30;99.90
10905;DHT22;5505;51.450;9.254;2022-08-21T07:55:49;20.40;99.90
10905;DHT22;5505;51.450;9.254;2022-08-21T07:58:36;20.60;99.90
10905;DHT22;5505;51.450;9.254;2022-08-21T08:01:23;20.70;99.90
10905;DHT22;5505;51.450;9.254;2022-08-21T08:04:11;20.80;99.90
10905;DHT22;5505;51.450;9.254;2022-08-21T08:07:00;20.90;99.90
10905;DHT22;5505;51.450;9.254;2022-08-21T08:09:47;21.00;99.90
10905;DHT22;5505;51.450;9.254;2022-08-21T08:12:34;21.10;99.90
10905;DHT22;5505;51.450;9.254;2022-08-21T08:15:23;21.20;99.90
10905;DHT22;5505;51.450;9.254;2022-08-21T08:18:10;21.30;99.90
10905;DHT22;5505;51.450;9.254;2022-08-21T08:20:58;21.30;99.90
10905;DHT22;5505;51.450;9.254;2022-08-21T08:23:45;21.40;99.90
10905;DHT22;5505;51.450;9.254;2022-08-21T08:26:32;21.50;99.90
10905;DHT22;5505;51.450;9.254;2022-08-21T08:29:18;21.60;99.90
10905;DHT22;5505;51.450;9.254;2022-08-21T08:32:06;21.70;99.90
10905;DHT22;5505;51.450;9.254;2022-08-21T08:34:53;21.80;99.90
10905;DHT22;5505;51.450;9.254;2022-08-21T08:37:42;21.80;99.90
10905;DHT22;5505;51.450;9.254;2022-08-21T08:40:35;21.90;99.90
10905;DHT22;5505;51.450;9.254;2022-08-21T08:43:25;22.00;99.90
10905;DHT22;5505;51.450;9.254;2022-08-21T08:46:15;22.00;99.90
10905;DHT22;5505;51.450;9.254;2022-08-21T08:49:06;22.00;99.90
10905;DHT22;5505;51.450;9.254;2022-08-21T08:51:57;22.20;99.90
10905;DHT22;5505;51.450;9.254;2022-08-21T08:54:51;22.30;99.90
10905;DHT22;5505;51.450;9.254;2022-08-21T08:57:41;22.40;99.90
10905;DHT22;5505;51.450;9.254;2022-08-21T09:00:29;22.40;99.90
10905;DHT22;5505;51.450;9.254;2022-08-21T09:03:18;22.50;99.90
10905;DHT22;5505;51.450;9.254;2022-08-21T09:06:10;22.70;99.90
10905;DHT22;5505;51.450;9.254;2022-08-21T09:09:14;22.90;99.90
10905;DHT22;5505;51.450;9.254;2022-08-21T09:12:12;23.00;99.90
10905;DHT22;5505;51.450;9.254;2022-08-21T09:15:09;23.00;99.90
10905;DHT22;5505;51.450;9.254;2022-08-21T09:18:14;23.10;99.90
10905;DHT22;5505;51.450;9.254;2022-08-21T09:21:12;23.00;99.90
10905;DHT22;5505;51.450;9.254;2022-08-21T09:24:10;22.90;99.90
10905;DHT22;5505;51.450;9.254;2022-08-21T09:27:08;23.10;99.90
10905;DHT22;5505;51.450;9.254;2022-08-21T09:29:56;23.10;99.90
10905;DHT22;5505;51.450;9.254;2022-08-21T09:32:44;23.10;99.90
10905;DHT22;5505;51.450;9.254;2022-08-21T09:35:30;22.90;99.90
10905;DHT22;5505;51.450;9.254;2022-08-21T09:38:26;22.90;99.90
10905;DHT22;5505;51.450;9.254;2022-08-21T09:41:14;23.00;99.90
10905;DHT22;5505;51.450;9.254;2022-08-21T09:44:03;23.30;99.90
10905;DHT22;5505;51.450;9.254;2022-08-21T09:46:51;23.60;99.90
10905;DHT22;5505;51.450;9.254;2022-08-21T09:49:40;23.90;99.90
10905;DHT22;5505;51.450;9.254;2022-08-21T09:52:27;24.00;99.90
10905;DHT22;5505;51.450;9.254;2022-08-21T09:55:28;24.00;99.90
10905;DHT22;5505;51.450;9.254;2022-08-21T09:58:36;24.10;99.90
10905;DHT22;5505;51.450;9.254;2022-08-21T10:01:25;24.20;99.90
10905;DHT22;5505;51.450;9.254;2022-08-21T10:04:13;24.30;99.90
10905;DHT22;5505;51.450;9.254;2022-08-21T10:07:07;24.60;99.90
10905;DHT22;5505;51.450;9.254;2022-08-21T10:10:00;24.70;99.90
10905;DHT22;5505;51.450;9.254;2022-08-21T10:12:52;24.80;99.90
10905;DHT22;5505;51.450;9.254;2022-08-21T10:15:47;24.80;99.80
10905;DHT22;5505;51.450;9.254;2022-08-21T10:18:40;24.50;99.90
10905;DHT22;5505;51.450;9.254;2022-08-21T10:21:30;24.20;99.90
10905;DHT22;5505;51.450;9.254;2022-08-21T10:24:26;24.10;99.90
10905;DHT22;5505;51.450;9.254;2022-08-21T10:27:20;24.20;99.90
10905;DHT22;5505;51.450;9.254;2022-08-21T10:30:12;24.20;99.90
10905;DHT22;5505;51.450;9.254;2022-08-21T10:33:09;24.30;99.90
10905;DHT22;5505;51.450;9.254;2022-08-21T10:36:05;24.30;99.90
10905;DHT22;5505;51.450;9.254;2022-08-21T10:39:04;24.50;99.90
10905;DHT22;5505;51.450;9.254;2022-08-21T10:42:05;24.40;99.90
10905;DHT22;5505;51.450;9.254;2022-08-21T10:45:02;24.50;99.90
10905;DHT22;5505;51.450;9.254;2022-08-21T10:47:55;24.80;99.10
10905;DHT22;5505;51.450;9.254;2022-08-21T10:50:48;24.90;99.40
10905;DHT22;5505;51.450;9.254;2022-08-21T10:53:45;25.10;97.90
10905;DHT22;5505;51.450;9.254;2022-08-21T10:56:36;25.20;97.10
10905;DHT22;5505;51.450;9.254;2022-08-21T10:59:28;25.30;97.80
10905;DHT22;5505;51.450;9.254;2022-08-21T11:02:20;25.30;97.90
10905;DHT22;5505;51.450;9.254;2022-08-21T11:05:12;25.30;97.00
10905;DHT22;5505;51.450;9.254;2022-08-21T11:08:04;25.00;97.60
10905;DHT22;5505;51.450;9.254;2022-08-21T11:10:58;25.00;98.30
10905;DHT22;5505;51.450;9.254;2022-08-21T11:13:50;25.00;97.20
10905;DHT22;5505;51.450;9.254;2022-08-21T11:16:41;24.90;97.50
10905;DHT22;5505;51.450;9.254;2022-08-21T11:19:32;24.90;98.00
10905;DHT22;5505;51.450;9.254;2022-08-21T11:22:25;24.90;98.30
10905;DHT22;5505;51.450;9.254;2022-08-21T11:25:20;25.00;97.70
10905;DHT22;5505;51.450;9.254;2022-08-21T11:28:15;25.10;96.80
10905;DHT22;5505;51.450;9.254;2022-08-21T11:31:15;25.20;95.90
10905;DHT22;5505;51.450;9.254;2022-08-21T11:34:18;25.20;95.90
10905;DHT22;5505;51.450;9.254;2022-08-21T11:37:12;25.00;96.00
10905;DHT22;5505;51.450;9.254;2022-08-21T11:40:05;24.90;95.40
10905;DHT22;5505;51.450;9.254;2022-08-21T11:43:10;24.70;95.70
10905;DHT22;5505;51.450;9.254;2022-08-21T11:46:08;24.40;96.70
10905;DHT22;5505;51.450;9.254;2022-08-21T11:49:23;24.30;96.10
10905;DHT22;5505;51.450;9.254;2022-08-21T11:52:17;24.30;95.40
10905;DHT22;5505;51.450;9.254;2022-08-21T11:55:08;24.40;96.10
10905;DHT22;5505;51.450;9.254;2022-08-21T11:58:05;24.50;96.70
10905;DHT22;5505;51.450;9.254;2022-08-21T12:00:57;24.60;95.70
10905;DHT22;5505;51.450;9.254;2022-08-21T12:03:54;24.80;96.50
10905;DHT22;5505;51.450;9.254;2022-08-21T12:06:42;25.00;94.90
10905;DHT22;5505;51.450;9.254;2022-08-21T12:09:32;25.00;95.00
10905;DHT22;5505;51.450;9.254;2022-08-21T12:12:26;25.00;95.20
10905;DHT22;5505;51.450;9.254;2022-08-21T12:15:23;24.90;95.00
10905;DHT22;5505;51.450;9.254;2022-08-21T12:18:23;24.80;95.60
10905;DHT22;5505;51.450;9.254;2022-08-21T12:21:21;24.70;95.40
10905;DHT22;5505;51.450;9.254;2022-08-21T12:24:17;24.70;94.80
10905;DHT22;5505;51.450;9.254;2022-08-21T12:27:19;24.50;94.80
10905;DHT22;5505;51.450;9.254;2022-08-21T12:30:21;24.50;95.50
10905;DHT22;5505;51.450;9.254;2022-08-21T12:33:22;24.60;95.70
10905;DHT22;5505;51.450;9.254;2022-08-21T12:36:14;24.80;95.40
10905;DHT22;5505;51.450;9.254;2022-08-21T12:39:05;24.80;95.10
10905;DHT22;5505;51.450;9.254;2022-08-21T12:42:00;24.80;95.20
10905;DHT22;5505;51.450;9.254;2022-08-21T12:44:50;24.80;95.90
10905;DHT22;5505;51.450;9.254;2022-08-21T12:47:47;24.90;95.20
10905;DHT22;5505;51.450;9.254;2022-08-21T12:50:41;25.40;95.80
10905;DHT22;5505;51.450;9.254;2022-08-21T12:53:31;25.30;94.70
10905;DHT22;5505;51.450;9.254;2022-08-21T12:56:21;25.40;94.50
10905;DHT22;5505;51.450;9.254;2022-08-21T12:59:12;25.50;94.80
10905;DHT22;5505;51.450;9.254;2022-08-21T13:02:00;25.50;93.90
10905;DHT22;5505;51.450;9.254;2022-08-21T13:04:50;25.50;93.90
10905;DHT22;5505;51.450;9.254;2022-08-21T13:07:44;25.40;93.90
10905;DHT22;5505;51.450;9.254;2022-08-21T13:10:33;25.30;94.00
10905;DHT22;5505;51.450;9.254;2022-08-21T13:13:22;25.20;94.60
10905;DHT22;5505;51.450;9.254;2022-08-21T13:16:10;25.10;95.00
10905;DHT22;5505;51.450;9.254;2022-08-21T13:19:01;25.10;93.90
10905;DHT22;5505;51.450;9.254;2022-08-21T13:21:48;25.00;94.80
10905;DHT22;5505;51.450;9.254;2022-08-21T13:24:37;24.80;94.50
10905;DHT22;5505;51.450;9.254;2022-08-21T13:27:28;24.60;94.90
10905;DHT22;5505;51.450;9.254;2022-08-21T13:30:19;24.50;95.50
10905;DHT22;5505;51.450;9.254;2022-08-21T13:33:06;24.50;95.20
10905;DHT22;5505;51.450;9.254;2022-08-21T13:36:02;24.70;95.10
10905;DHT22;5505;51.450;9.254;2022-08-21T13:38:51;24.80;94.70
10905;DHT22;5505;51.450;9.254;2022-08-21T13:41:43;24.80;94.60
10905;DHT22;5505;51.450;9.254;2022-08-21T13:44:35;24.90;94.70
10905;DHT22;5505;51.450;9.254;2022-08-21T13:47:22;25.00;94.60
10905;DHT22;5505;51.450;9.254;2022-08-21T13:50:12;25.00;94.70
10905;DHT22;5505;51.450;9.254;2022-08-21T13:53:02;24.90;94.90
10905;DHT22;5505;51.450;9.254;2022-08-21T13:55:49;24.80;94.80
10905;DHT22;5505;51.450;9.254;2022-08-21T13:58:45;24.70;95.10
10905;DHT22;5505;51.450;9.254;2022-08-21T14:04:29;24.50;95.20
10905;DHT22;5505;51.450;9.254;2022-08-21T14:07:20;24.40;95.20
10905;DHT22;5505;51.450;9.254;2022-08-21T14:10:14;24.50;94.90
10905;DHT22;5505;51.450;9.254;2022-08-21T14:13:04;24.60;95.20
10905;DHT22;5505;51.450;9.254;2022-08-21T14:15:56;24.80;94.70
10905;DHT22;5505;51.450;9.254;2022-08-21T14:18:45;25.10;94.10
10905;DHT22;5505;51.450;9.254;2022-08-21T14:21:36;25.20;94.10
10905;DHT22;5505;51.450;9.254;2022-08-21T14:24:29;25.30;94.60
10905;DHT22;5505;51.450;9.254;2022-08-21T14:27:17;25.40;94.00
10905;DHT22;5505;51.450;9.254;2022-08-21T14:30:12;25.50;93.70
10905;DHT22;5505;51.450;9.254;2022-08-21T14:33:00;25.40;93.80
10905;DHT22;5505;51.450;9.254;2022-08-21T14:35:47;25.50;94.20
10905;DHT22;5505;51.450;9.254;2022-08-21T14:38:37;25.50;93.90
10905;DHT22;5505;51.450;9.254;2022-08-21T14:41:25;25.40;94.10
10905;DHT22;5505;51.450;9.254;2022-08-21T14:44:13;25.40;94.20
10905;DHT22;5505;51.450;9.254;2022-08-21T14:47:00;25.40;93.70
10905;DHT22;5505;51.450;9.254;2022-08-21T14:49:47;25.50;93.90
10905;DHT22;5505;51.450;9.254;2022-08-21T14:52:34;25.40;94.20
10905;DHT22;5505;51.450;9.254;2022-08-21T14:55:23;25.30;93.90
10905;DHT22;5505;51.450;9.254;2022-08-21T14:58:10;25.20;94.40
10905;DHT22;5505;51.450;9.254;2022-08-21T15:00:57;25.20;94.60
10905;DHT22;5505;51.450;9.254;2022-08-21T15:03:48;25.20;94.40
10905;DHT22;5505;51.450;9.254;2022-08-21T15:06:36;25.20;94.20
10905;DHT22;5505;51.450;9.254;2022-08-21T15:09:23;25.10;95.00
10905;DHT22;5505;51.450;9.254;2022-08-21T15:12:13;25.10;95.00
10905;DHT22;5505;51.450;9.254;2022-08-21T15:15:02;25.30;94.60
10905;DHT22;5505;51.450;9.254;2022-08-21T15:17:50;25.30;94.20
10905;DHT22;5505;51.450;9.254;2022-08-21T15:20:37;25.30;94.50
10905;DHT22;5505;51.450;9.254;2022-08-21T15:23:24;25.40;94.50
10905;DHT22;5505;51.450;9.254;2022-08-21T15:26:11;25.40;93.80
10905;DHT22;5505;51.450;9.254;2022-08-21T15:29:00;25.30;94.30
10905;DHT22;5505;51.450;9.254;2022-08-21T15:31:53;25.40;94.10
10905;DHT22;5505;51.450;9.254;2022-08-21T15:34:40;25.40;94.60
10905;DHT22;5505;51.450;9.254;2022-08-21T15:37:27;25.50;94.90
10905;DHT22;5505;51.450;9.254;2022-08-21T15:40:15;25.50;94.10
10905;DHT22;5505;51.450;9.254;2022-08-21T15:43:03;25.50;94.00
10905;DHT22;5505;51.450;9.254;2022-08-21T15:45:54;25.50;94.00
10905;DHT22;5505;51.450;9.254;2022-08-21T15:48:43;25.30;93.90
10905;DHT22;5505;51.450;9.254;2022-08-21T15:51:32;25.10;94.20
10905;DHT22;5505;51.450;9.254;2022-08-21T15:54:19;25.00;94.30
10905;DHT22;5505;51.450;9.254;2022-08-21T15:57:06;25.00;94.50
10905;DHT22;5505;51.450;9.254;2022-08-21T15:59:55;24.80;94.60
10905;DHT22;5505;51.450;9.254;2022-08-21T16:02:46;24.80;95.20
10905;DHT22;5505;51.450;9.254;2022-08-21T16:05:33;24.80;94.60
10905;DHT22;5505;51.450;9.254;2022-08-21T16:08:20;24.80;94.50
10905;DHT22;5505;51.450;9.254;2022-08-21T16:11:07;24.80;94.40
10905;DHT22;5505;51.450;9.254;2022-08-21T16:13:54;24.80;94.30
10905;DHT22;5505;51.450;9.254;2022-08-21T16:16:43;24.70;94.70
10905;DHT22;5505;51.450;9.254;2022-08-21T16:19:39;24.60;93.90
10905;DHT22;5505;51.450;9.254;2022-08-21T16:22:35;24.60;93.60
10905;DHT22;5505;51.450;9.254;2022-08-21T16:25:27;24.60;94.10
10905;DHT22;5505;51.450;9.254;2022-08-21T16:28:16;24.50;93.80
10905;DHT22;5505;51.450;9.254;2022-08-21T16:31:04;24.50;94.30
10905;DHT22;5505;51.450;9.254;2022-08-21T16:33:55;24.50;94.20
10905;DHT22;5505;51.450;9.254;2022-08-21T16:36:43;24.50;93.90
10905;DHT22;5505;51.450;9.254;2022-08-21T16:39:30;24.50;94.00
10905;DHT22;5505;51.450;9.254;2022-08-21T16:42:20;24.60;94.00
10905;DHT22;5505;51.450;9.254;2022-08-21T16:45:09;24.70;93.90
10905;DHT22;5505;51.450;9.254;2022-08-21T16:47:57;24.70;93.70
10905;DHT22;5505;51.450;9.254;2022-08-21T16:50:44;24.60;93.50
10905;DHT22;5505;51.450;9.254;2022-08-21T16:53:32;24.60;93.80
10905;DHT22;5505;51.450;9.254;2022-08-21T16:56:19;24.40;93.90
10905;DHT22;5505;51.450;9.254;2022-08-21T16:59:06;24.40;94.00
10905;DHT22;5505;51.450;9.254;2022-08-21T17:01:53;24.30;93.90
10905;DHT22;5505;51.450;9.254;2022-08-21T17:04:40;24.20;93.80
10905;DHT22;5505;51.450;9.254;2022-08-21T17:07:27;24.20;94.20
10905;DHT22;5505;51.450;9.254;2022-08-21T17:10:16;24.00;94.30
10905;DHT22;5505;51.450;9.254;2022-08-21T17:13:04;23.90;94.50
10905;DHT22;5505;51.450;9.254;2022-08-21T17:15:51;23.80;95.00
10905;DHT22;5505;51.450;9.254;2022-08-21T17:18:38;23.60;95.00
10905;DHT22;5505;51.450;9.254;2022-08-21T17:21:25;23.60;95.10
10905;DHT22;5505;51.450;9.254;2022-08-21T17:24:12;23.50;94.80
10905;DHT22;5505;51.450;9.254;2022-08-21T17:27:01;23.40;95.20
10905;DHT22;5505;51.450;9.254;2022-08-21T17:29:48;23.30;95.50
10905;DHT22;5505;51.450;9.254;2022-08-21T17:32:35;23.20;95.30
10905;DHT22;5505;51.450;9.254;2022-08-21T17:35:22;23.10;95.40
10905;DHT22;5505;51.450;9.254;2022-08-21T17:38:10;23.00;95.50
10905;DHT22;5505;51.450;9.254;2022-08-21T17:40:57;22.90;95.90
10905;DHT22;5505;51.450;9.254;2022-08-21T17:43:45;22.80;95.70
10905;DHT22;5505;51.450;9.254;2022-08-21T17:46:32;22.70;96.50
10905;DHT22;5505;51.450;9.254;2022-08-21T17:49:19;22.60;96.90
10905;DHT22;5505;51.450;9.254;2022-08-21T17:52:06;22.50;97.70
10905;DHT22;5505;51.450;9.254;2022-08-21T17:54:53;22.40;98.40
10905;DHT22;5505;51.450;9.254;2022-08-21T17:57:42;22.30;98.80
10905;DHT22;5505;51.450;9.254;2022-08-21T18:00:31;20.90;98.90
10905;DHT22;5505;51.450;9.254;2022-08-21T18:03:20;22.10;98.10
10905;DHT22;5505;51.450;9.254;2022-08-21T18:06:07;22.10;98.70
10905;DHT22;5505;51.450;9.254;2022-08-21T18:08:54;22.00;99.20